sensor_id;sensor_type;location;lat;lon;timestamp;P1;durP1;ratioP1;P2;durP2;ratioP2
21412;SDS011;10867;45.084;5.732;2022-09-13T03:50:16;6.45;;;2.05;;
21412;SDS011;10867;45.084;5.732;2022-09-13T04:16:42;4.20;;;3.70;;
21412;SDS011;10867;45.084;5.732;2022-09-13T04:19:23;5.55;;;4.38;;
21412;SDS011;10867;45.084;5.732;2022-09-13T04:38:49;4.22;;;3.70;;
21412;SDS011;10867;45.084;5.732;2022-09-13T04:45:13;5.45;;;3.28;;
21412;SDS011;10867;45.084;5.732;2022-09-13T04:47:44;9.73;;;4.28;;
21412;SDS011;10867;45.084;5.732;2022-09-13T04:54:13;8.27;;;4.00;;
21412;SDS011;10867;45.084;5.732;2022-09-13T04:56:39;5.70;;;4.15;;
21412;SDS011;10867;45.084;5.732;2022-09-13T04:59:09;6.82;;;3.50;;
21412;SDS011;10867;45.084;5.732;2022-09-13T05:02:03;3.30;;;2.75;;
21412;SDS011;10867;45.084;5.732;2022-09-13T05:04:38;5.10;;;3.30;;
21412;SDS011;10867;45.084;5.732;2022-09-13T05:10:11;4.28;;;3.58;;
21412;SDS011;10867;45.084;5.732;2022-09-13T06:03:21;4.70;;;3.20;;
21412;SDS011;10867;45.084;5.732;2022-09-13T06:10:09;4.75;;;3.35;;
21412;SDS011;10867;45.084;5.732;2022-09-13T06:33:15;6.50;;;2.45;;
21412;SDS011;10867;45.084;5.732;2022-09-13T06:35:49;4.30;;;2.70;;
21412;SDS011;10867;45.084;5.732;2022-09-13T06:38:33;5.63;;;2.75;;
21412;SDS011;10867;45.084;5.732;2022-09-13T06:41:25;8.13;;;4.57;;
21412;SDS011;10867;45.084;5.732;2022-09-13T06:44:32;4.35;;;3.35;;
21412;SDS011;10867;45.084;5.732;2022-09-13T06:47:30;6.65;;;4.03;;
21412;SDS011;10867;45.084;5.732;2022-09-13T06:49:59;4.40;;;4.00;;
21412;SDS011;10867;45.084;5.732;2022-09-13T06:52:28;8.15;;;4.55;;
21412;SDS011;10867;45.084;5.732;2022-09-13T06:54:54;7.75;;;4.20;;
21412;SDS011;10867;45.084;5.732;2022-09-13T06:57:20;9.80;;;6.40;;
21412;SDS011;10867;45.084;5.732;2022-09-13T06:59:49;11.38;;;4.78;;
21412;SDS011;10867;45.084;5.732;2022-09-13T07:02:15;10.48;;;4.53;;
21412;SDS011;10867;45.084;5.732;2022-09-13T07:04:41;6.38;;;3.00;;
21412;SDS011;10867;45.084;5.732;2022-09-13T07:07:11;4.28;;;2.38;;
21412;SDS011;10867;45.084;5.732;2022-09-13T07:09:39;11.60;;;3.47;;
21412;SDS011;10867;45.084;5.732;2022-09-13T07:12:06;4.07;;;2.30;;
21412;SDS011;10867;45.084;5.732;2022-09-13T07:14:32;5.05;;;2.17;;
21412;SDS011;10867;45.084;5.732;2022-09-13T07:17:01;6.35;;;2.20;;
21412;SDS011;10867;45.084;5.732;2022-09-13T07:19:27;5.28;;;2.40;;
21412;SDS011;10867;45.084;5.732;2022-09-13T07:22:03;6.40;;;2.47;;
21412;SDS011;10867;45.084;5.732;2022-09-13T07:25:00;25.50;;;3.63;;
21412;SDS011;10867;45.084;5.732;2022-09-13T07:27:26;6.70;;;2.95;;
21412;SDS011;10867;45.084;5.732;2022-09-13T07:30:00;10.57;;;2.65;;
21412;SDS011;10867;45.084;5.732;2022-09-13T07:32:26;5.28;;;2.60;;
21412;SDS011;10867;45.084;5.732;2022-09-13T07:34:59;8.23;;;2.45;;
21412;SDS011;10867;45.084;5.732;2022-09-13T07:37:41;5.20;;;2.70;;
21412;SDS011;10867;45.084;5.732;2022-09-13T07:40:27;5.40;;;3.35;;
21412;SDS011;10867;45.084;5.732;2022-09-13T07:42:53;5.68;;;2.83;;
21412;SDS011;10867;45.084;5.732;2022-09-13T07:45:22;7.82;;;3.17;;
21412;SDS011;10867;45.084;5.732;2022-09-13T07:47:48;18.05;;;3.92;;
21412;SDS011;10867;45.084;5.732;2022-09-13T07:50:17;15.60;;;4.55;;
21412;SDS011;10867;45.084;5.732;2022-09-13T07:52:43;13.93;;;4.07;;
21412;SDS011;10867;45.084;5.732;2022-09-13T07:55:15;9.43;;;3.58;;
21412;SDS011;10867;45.084;5.732;2022-09-13T07:57:44;13.45;;;4.03;;
21412;SDS011;10867;45.084;5.732;2022-09-13T08:00:12;20.35;;;4.80;;
21412;SDS011;10867;45.084;5.732;2022-09-13T08:02:38;9.30;;;3.20;;
21412;SDS011;10867;45.084;5.732;2022-09-13T08:05:04;10.00;;;3.53;;
21412;SDS011;10867;45.084;5.732;2022-09-13T08:07:30;13.68;;;3.80;;
21412;SDS011;10867;45.084;5.732;2022-09-13T08:09:57;7.75;;;2.95;;
21412;SDS011;10867;45.084;5.732;2022-09-13T08:12:23;9.95;;;3.25;;
21412;SDS011;10867;45.084;5.732;2022-09-13T08:14:49;8.00;;;2.80;;
21412;SDS011;10867;45.084;5.732;2022-09-13T08:17:15;5.18;;;2.33;;
21412;SDS011;10867;45.084;5.732;2022-09-13T08:19:41;4.53;;;2.55;;
21412;SDS011;10867;45.084;5.732;2022-09-13T08:22:07;6.90;;;2.97;;
21412;SDS011;10867;45.084;5.732;2022-09-13T08:24:34;8.05;;;3.00;;
21412;SDS011;10867;45.084;5.732;2022-09-13T08:27:00;7.80;;;2.97;;
21412;SDS011;10867;45.084;5.732;2022-09-13T08:29:26;4.07;;;3.00;;
21412;SDS011;10867;45.084;5.732;2022-09-13T08:31:52;4.60;;;3.60;;
21412;SDS011;10867;45.084;5.732;2022-09-13T08:34:18;5.35;;;3.03;;
21412;SDS011;10867;45.084;5.732;2022-09-13T08:36:47;8.93;;;3.00;;
21412;SDS011;10867;45.084;5.732;2022-09-13T08:45:37;7.95;;;3.08;;
21412;SDS011;10867;45.084;5.732;2022-09-13T08:48:08;5.45;;;2.88;;
21412;SDS011;10867;45.084;5.732;2022-09-13T08:50:37;6.70;;;2.85;;
21412;SDS011;10867;45.084;5.732;2022-09-13T08:53:24;18.33;;;3.55;;
21412;SDS011;10867;45.084;5.732;2022-09-13T08:58:41;14.15;;;2.92;;
21412;SDS011;10867;45.084;5.732;2022-09-13T09:06:11;10.00;;;3.40;;
21412;SDS011;10867;45.084;5.732;2022-09-13T09:11:17;4.95;;;2.33;;
21412;SDS011;10867;45.084;5.732;2022-09-13T09:13:53;5.78;;;2.38;;
21412;SDS011;10867;45.084;5.732;2022-09-13T09:19:03;8.73;;;2.33;;
21412;SDS011;10867;45.084;5.732;2022-09-13T09:21:31;4.57;;;2.80;;
21412;SDS011;10867;45.084;5.732;2022-09-13T09:23:57;7.25;;;2.67;;
21412;SDS011;10867;45.084;5.732;2022-09-13T09:26:26;16.58;;;3.20;;
21412;SDS011;10867;45.084;5.732;2022-09-13T09:39:28;19.38;;;4.10;;
21412;SDS011;10867;45.084;5.732;2022-09-13T09:41:57;16.20;;;4.15;;
21412;SDS011;10867;45.084;5.732;2022-09-13T09:44:27;11.57;;;3.60;;
21412;SDS011;10867;45.084;5.732;2022-09-13T09:46:56;15.38;;;3.67;;
21412;SDS011;10867;45.084;5.732;2022-09-13T09:49:25;15.63;;;3.90;;
21412;SDS011;10867;45.084;5.732;2022-09-13T09:52:15;11.95;;;3.47;;
21412;SDS011;10867;45.084;5.732;2022-09-13T09:54:42;12.77;;;3.10;;
21412;SDS011;10867;45.084;5.732;2022-09-13T09:57:10;20.50;;;3.45;;
21412;SDS011;10867;45.084;5.732;2022-09-13T09:59:38;7.93;;;2.67;;
21412;SDS011;10867;45.084;5.732;2022-09-13T10:02:12;9.25;;;2.90;;
21412;SDS011;10867;45.084;5.732;2022-09-13T10:04:39;11.07;;;2.60;;
21412;SDS011;10867;45.084;5.732;2022-09-13T10:07:10;9.02;;;2.40;;
21412;SDS011;10867;45.084;5.732;2022-09-13T10:09:57;8.43;;;2.33;;
21412;SDS011;10867;45.084;5.732;2022-09-13T10:12:34;15.27;;;2.53;;
21412;SDS011;10867;45.084;5.732;2022-09-13T10:15:06;14.60;;;2.83;;
21412;SDS011;10867;45.084;5.732;2022-09-13T10:17:37;18.92;;;3.20;;
21412;SDS011;10867;45.084;5.732;2022-09-13T10:22:41;16.33;;;3.20;;
21412;SDS011;10867;45.084;5.732;2022-09-13T10:25:14;18.30;;;3.10;;
21412;SDS011;10867;45.084;5.732;2022-09-13T10:27:46;18.80;;;3.20;;
21412;SDS011;10867;45.084;5.732;2022-09-13T10:30:30;24.38;;;3.78;;
21412;SDS011;10867;45.084;5.732;2022-09-13T10:32:57;28.73;;;3.28;;
21412;SDS011;10867;45.084;5.732;2022-09-13T10:35:24;23.25;;;3.30;;
21412;SDS011;10867;45.084;5.732;2022-09-13T10:37:50;20.15;;;3.40;;
21412;SDS011;10867;45.084;5.732;2022-09-13T10:40:18;19.05;;;2.92;;
21412;SDS011;10867;45.084;5.732;2022-09-13T10:42:51;21.63;;;3.00;;
21412;SDS011;10867;45.084;5.732;2022-09-13T10:45:21;19.05;;;2.97;;
21412;SDS011;10867;45.084;5.732;2022-09-13T10:47:49;16.00;;;2.72;;
21412;SDS011;10867;45.084;5.732;2022-09-13T10:50:23;13.48;;;2.40;;
21412;SDS011;10867;45.084;5.732;2022-09-13T10:52:50;14.07;;;2.40;;
21412;SDS011;10867;45.084;5.732;2022-09-13T10:57:46;12.10;;;2.45;;
21412;SDS011;10867;45.084;5.732;2022-09-13T11:00:23;10.98;;;2.50;;
21412;SDS011;10867;45.084;5.732;2022-09-13T11:05:41;11.82;;;2.60;;
21412;SDS011;10867;45.084;5.732;2022-09-13T11:08:14;8.27;;;2.27;;
21412;SDS011;10867;45.084;5.732;2022-09-13T11:13:15;19.73;;;2.60;;
21412;SDS011;10867;45.084;5.732;2022-09-13T11:18:22;10.70;;;2.50;;
21412;SDS011;10867;45.084;5.732;2022-09-13T11:20:52;12.77;;;2.53;;
21412;SDS011;10867;45.084;5.732;2022-09-13T11:26:47;16.05;;;2.58;;
21412;SDS011;10867;45.084;5.732;2022-09-13T11:31:41;9.32;;;1.90;;
21412;SDS011;10867;45.084;5.732;2022-09-13T11:34:25;8.35;;;2.00;;
21412;SDS011;10867;45.084;5.732;2022-09-13T11:57:01;12.27;;;2.35;;
21412;SDS011;10867;45.084;5.732;2022-09-13T11:59:34;13.27;;;2.50;;
21412;SDS011;10867;45.084;5.732;2022-09-13T12:02:03;5.20;;;1.80;;
21412;SDS011;10867;45.084;5.732;2022-09-13T12:04:32;5.57;;;1.65;;
21412;SDS011;10867;45.084;5.732;2022-09-13T12:07:08;4.13;;;1.60;;
21412;SDS011;10867;45.084;5.732;2022-09-13T12:09:37;5.18;;;1.70;;
21412;SDS011;10867;45.084;5.732;2022-09-13T12:12:12;2.27;;;1.23;;
21412;SDS011;10867;45.084;5.732;2022-09-13T12:17:11;5.80;;;1.52;;
21412;SDS011;10867;45.084;5.732;2022-09-13T12:19:46;3.45;;;1.50;;
21412;SDS011;10867;45.084;5.732;2022-09-13T12:22:14;5.00;;;1.40;;
21412;SDS011;10867;45.084;5.732;2022-09-13T12:24:43;8.10;;;1.83;;
21412;SDS011;10867;45.084;5.732;2022-09-13T12:27:27;4.70;;;1.40;;
21412;SDS011;10867;45.084;5.732;2022-09-13T12:30:16;2.72;;;1.55;;
21412;SDS011;10867;45.084;5.732;2022-09-13T12:32:43;10.18;;;1.80;;
21412;SDS011;10867;45.084;5.732;2022-09-13T12:35:27;9.63;;;1.80;;
21412;SDS011;10867;45.084;5.732;2022-09-13T12:38:09;3.60;;;1.50;;
21412;SDS011;10867;45.084;5.732;2022-09-13T12:51:13;9.57;;;1.80;;
21412;SDS011;10867;45.084;5.732;2022-09-13T12:58:54;10.00;;;1.80;;
21412;SDS011;10867;45.084;5.732;2022-09-13T13:01:22;10.32;;;2.10;;
21412;SDS011;10867;45.084;5.732;2022-09-13T13:06:28;14.38;;;2.17;;
21412;SDS011;10867;45.084;5.732;2022-09-13T13:08:56;6.20;;;1.90;;
21412;SDS011;10867;45.084;5.732;2022-09-13T13:11:24;18.77;;;2.17;;
21412;SDS011;10867;45.084;5.732;2022-09-13T13:13:55;14.75;;;2.60;;
21412;SDS011;10867;45.084;5.732;2022-09-13T13:16:23;18.77;;;2.60;;
21412;SDS011;10867;45.084;5.732;2022-09-13T13:18:51;12.68;;;2.10;;
21412;SDS011;10867;45.084;5.732;2022-09-13T13:21:26;6.15;;;1.60;;
21412;SDS011;10867;45.084;5.732;2022-09-13T13:29:18;16.77;;;3.50;;
21412;SDS011;10867;45.084;5.732;2022-09-13T13:41:59;15.30;;;2.50;;
21412;SDS011;10867;45.084;5.732;2022-09-13T13:59:52;9.45;;;1.90;;
21412;SDS011;10867;45.084;5.732;2022-09-13T14:03:06;8.57;;;1.70;;
21412;SDS011;10867;45.084;5.732;2022-09-13T14:28:45;5.57;;;1.80;;
21412;SDS011;10867;45.084;5.732;2022-09-13T14:57:31;6.65;;;1.90;;
21412;SDS011;10867;45.084;5.732;2022-09-13T15:00:03;5.55;;;1.90;;
21412;SDS011;10867;45.084;5.732;2022-09-13T15:02:39;4.38;;;2.10;;
21412;SDS011;10867;45.084;5.732;2022-09-13T15:05:12;4.70;;;1.90;;
21412;SDS011;10867;45.084;5.732;2022-09-13T15:07:43;5.38;;;1.95;;
21412;SDS011;10867;45.084;5.732;2022-09-13T15:10:23;9.13;;;2.10;;
21412;SDS011;10867;45.084;5.732;2022-09-13T15:15:40;6.43;;;1.97;;
21412;SDS011;10867;45.084;5.732;2022-09-13T15:20:58;5.45;;;1.85;;
21412;SDS011;10867;45.084;5.732;2022-09-13T15:26:19;5.45;;;1.50;;
21412;SDS011;10867;45.084;5.732;2022-09-13T15:28:52;4.40;;;1.50;;
21412;SDS011;10867;45.084;5.732;2022-09-13T15:31:44;6.88;;;1.80;;
21412;SDS011;10867;45.084;5.732;2022-09-13T15:38:25;6.10;;;1.90;;
21412;SDS011;10867;45.084;5.732;2022-09-13T15:41:30;6.18;;;1.90;;
21412;SDS011;10867;45.084;5.732;2022-09-13T15:44:55;4.38;;;1.90;;
21412;SDS011;10867;45.084;5.732;2022-09-13T15:47:31;7.13;;;1.80;;
21412;SDS011;10867;45.084;5.732;2022-09-13T15:53:44;5.10;;;1.67;;
21412;SDS011;10867;45.084;5.732;2022-09-13T15:56:33;4.97;;;2.00;;
21412;SDS011;10867;45.084;5.732;2022-09-13T16:02:53;5.60;;;2.03;;
21412;SDS011;10867;45.084;5.732;2022-09-13T16:09:10;5.35;;;2.00;;
21412;SDS011;10867;45.084;5.732;2022-09-13T16:36:40;6.70;;;1.95;;
21412;SDS011;10867;45.084;5.732;2022-09-13T17:04:56;6.70;;;2.00;;
21412;SDS011;10867;45.084;5.732;2022-09-13T18:07:04;7.25;;;2.28;;
21412;SDS011;10867;45.084;5.732;2022-09-13T18:10:05;4.95;;;1.73;;
21412;SDS011;10867;45.084;5.732;2022-09-13T18:27:53;12.13;;;10.45;;
21412;SDS011;10867;45.084;5.732;2022-09-13T19:38:50;5.40;;;1.40;;
21412;SDS011;10867;45.084;5.732;2022-09-13T23:45:14;11.48;;;1.70;;
